sensor_id;sensor_type;location;lat;lon;timestamp;P1;durP1;ratioP1;P2;durP2;ratioP2
7233;SDS011;3658;47.992;10.158;2022-11-20T00:00:38;3.23;;;1.50;;
7233;SDS011;3658;47.992;10.158;2022-11-20T00:03:05;2.17;;;1.50;;
7233;SDS011;3658;47.992;10.158;2022-11-20T00:05:32;1.50;;;1.30;;
7233;SDS011;3658;47.992;10.158;2022-11-20T00:07:59;1.87;;;1.40;;
7233;SDS011;3658;47.992;10.158;2022-11-20T00:10:26;1.50;;;1.20;;
7233;SDS011;3658;47.992;10.158;2022-11-20T00:12:54;1.77;;;1.57;;
7233;SDS011;3658;47.992;10.158;2022-11-20T00:15:23;1.67;;;1.40;;
7233;SDS011;3658;47.992;10.158;2022-11-20T00:17:50;1.30;;;1.20;;
7233;SDS011;3658;47.992;10.158;2022-11-20T00:20:17;1.57;;;1.40;;
7233;SDS011;3658;47.992;10.158;2022-11-20T00:22:44;1.47;;;1.30;;
7233;SDS011;3658;47.992;10.158;2022-11-20T00:25:11;1.67;;;1.30;;
7233;SDS011;3658;47.992;10.158;2022-11-20T00:27:38;1.23;;;1.13;;
7233;SDS011;3658;47.992;10.158;2022-11-20T00:30:07;1.57;;;1.40;;
7233;SDS011;3658;47.992;10.158;2022-11-20T00:32:34;1.70;;;1.60;;
7233;SDS011;3658;47.992;10.158;2022-11-20T00:35:01;1.47;;;1.37;;
7233;SDS011;3658;47.992;10.158;2022-11-20T00:37:29;1.30;;;1.20;;
7233;SDS011;3658;47.992;10.158;2022-11-20T00:39:56;1.50;;;1.40;;
7233;SDS011;3658;47.992;10.158;2022-11-20T00:42:23;1.40;;;1.30;;
7233;SDS011;3658;47.992;10.158;2022-11-20T00:44:49;1.30;;;1.20;;
7233;SDS011;3658;47.992;10.158;2022-11-20T00:47:18;1.30;;;1.20;;
7233;SDS011;3658;47.992;10.158;2022-11-20T00:49:45;1.30;;;1.20;;
7233;SDS011;3658;47.992;10.158;2022-11-20T00:52:12;1.40;;;1.30;;
7233;SDS011;3658;47.992;10.158;2022-11-20T00:54:38;1.40;;;1.30;;
7233;SDS011;3658;47.992;10.158;2022-11-20T00:57:05;1.47;;;1.37;;
7233;SDS011;3658;47.992;10.158;2022-11-20T00:59:32;1.57;;;1.30;;
7233;SDS011;3658;47.992;10.158;2022-11-20T01:01:59;1.93;;;1.20;;
7233;SDS011;3658;47.992;10.158;2022-11-20T01:04:28;1.40;;;1.30;;
7233;SDS011;3658;47.992;10.158;2022-11-20T01:06:55;1.63;;;1.37;;
7233;SDS011;3658;47.992;10.158;2022-11-20T01:09:22;1.43;;;1.20;;
7233;SDS011;3658;47.992;10.158;2022-11-20T01:11:49;1.40;;;1.30;;
7233;SDS011;3658;47.992;10.158;2022-11-20T01:14:17;1.27;;;1.17;;
7233;SDS011;3658;47.992;10.158;2022-11-20T01:16:45;1.17;;;1.07;;
7233;SDS011;3658;47.992;10.158;2022-11-20T01:19:15;1.50;;;1.40;;
7233;SDS011;3658;47.992;10.158;2022-11-20T01:21:47;1.30;;;1.20;;
7233;SDS011;3658;47.992;10.158;2022-11-20T01:24:16;1.00;;;1.00;;
7233;SDS011;3658;47.992;10.158;2022-11-20T01:26:46;1.47;;;1.37;;
7233;SDS011;3658;47.992;10.158;2022-11-20T01:29:16;1.50;;;1.40;;
7233;SDS011;3658;47.992;10.158;2022-11-20T01:31:44;1.30;;;1.20;;
7233;SDS011;3658;47.992;10.158;2022-11-20T01:34:12;1.30;;;1.20;;
7233;SDS011;3658;47.992;10.158;2022-11-20T01:36:40;1.50;;;1.30;;
7233;SDS011;3658;47.992;10.158;2022-11-20T01:39:11;1.47;;;1.37;;
7233;SDS011;3658;47.992;10.158;2022-11-20T01:41:40;1.40;;;1.30;;
7233;SDS011;3658;47.992;10.158;2022-11-20T01:44:43;1.30;;;1.20;;
7233;SDS011;3658;47.992;10.158;2022-11-20T01:47:15;1.30;;;1.20;;
7233;SDS011;3658;47.992;10.158;2022-11-20T01:49:46;1.30;;;1.20;;
7233;SDS011;3658;47.992;10.158;2022-11-20T01:52:18;1.27;;;1.10;;
7233;SDS011;3658;47.992;10.158;2022-11-20T01:54:48;1.30;;;1.20;;
7233;SDS011;3658;47.992;10.158;2022-11-20T01:57:19;1.30;;;1.20;;
7233;SDS011;3658;47.992;10.158;2022-11-20T01:59:49;1.37;;;1.27;;
7233;SDS011;3658;47.992;10.158;2022-11-20T02:02:23;1.30;;;1.20;;
7233;SDS011;3658;47.992;10.158;2022-11-20T02:04:50;1.23;;;1.10;;
7233;SDS011;3658;47.992;10.158;2022-11-20T02:07:20;1.50;;;1.40;;
7233;SDS011;3658;47.992;10.158;2022-11-20T02:09:50;1.33;;;1.23;;
7233;SDS011;3658;47.992;10.158;2022-11-20T02:12:17;1.17;;;1.07;;
7233;SDS011;3658;47.992;10.158;2022-11-20T02:14:58;1.10;;;1.00;;
7233;SDS011;3658;47.992;10.158;2022-11-20T02:17:25;2.27;;;1.50;;
7233;SDS011;3658;47.992;10.158;2022-11-20T02:19:53;1.37;;;1.27;;
7233;SDS011;3658;47.992;10.158;2022-11-20T02:22:21;1.30;;;1.20;;
7233;SDS011;3658;47.992;10.158;2022-11-20T02:24:55;1.40;;;1.30;;
7233;SDS011;3658;47.992;10.158;2022-11-20T02:27:23;1.20;;;1.10;;
7233;SDS011;3658;47.992;10.158;2022-11-20T02:29:51;1.27;;;1.17;;
7233;SDS011;3658;47.992;10.158;2022-11-20T02:32:22;1.30;;;1.20;;
7233;SDS011;3658;47.992;10.158;2022-11-20T02:34:51;1.30;;;1.20;;
7233;SDS011;3658;47.992;10.158;2022-11-20T02:37:18;1.40;;;1.30;;
7233;SDS011;3658;47.992;10.158;2022-11-20T02:39:47;1.90;;;1.27;;
7233;SDS011;3658;47.992;10.158;2022-11-20T02:42:18;1.33;;;1.23;;
7233;SDS011;3658;47.992;10.158;2022-11-20T02:44:45;1.20;;;1.10;;
7233;SDS011;3658;47.992;10.158;2022-11-20T02:47:12;1.33;;;1.17;;
7233;SDS011;3658;47.992;10.158;2022-11-20T02:49:39;1.30;;;1.20;;
7233;SDS011;3658;47.992;10.158;2022-11-20T02:52:06;1.20;;;1.10;;
7233;SDS011;3658;47.992;10.158;2022-11-20T02:54:33;1.50;;;1.40;;
7233;SDS011;3658;47.992;10.158;2022-11-20T02:57:00;1.30;;;1.20;;
7233;SDS011;3658;47.992;10.158;2022-11-20T02:59:28;1.30;;;1.20;;
7233;SDS011;3658;47.992;10.158;2022-11-20T03:01:55;1.50;;;1.20;;
7233;SDS011;3658;47.992;10.158;2022-11-20T03:04:22;1.77;;;1.30;;
7233;SDS011;3658;47.992;10.158;2022-11-20T03:06:49;1.80;;;1.10;;
7233;SDS011;3658;47.992;10.158;2022-11-20T03:09:16;1.30;;;1.20;;
7233;SDS011;3658;47.992;10.158;2022-11-20T03:11:43;1.50;;;1.20;;
7233;SDS011;3658;47.992;10.158;2022-11-20T03:14:10;1.30;;;1.17;;
7233;SDS011;3658;47.992;10.158;2022-11-20T03:16:38;1.00;;;1.00;;
7233;SDS011;3658;47.992;10.158;2022-11-20T03:19:05;1.33;;;1.20;;
7233;SDS011;3658;47.992;10.158;2022-11-20T03:21:32;1.30;;;1.20;;
7233;SDS011;3658;47.992;10.158;2022-11-20T03:24:00;1.30;;;1.20;;
7233;SDS011;3658;47.992;10.158;2022-11-20T03:26:28;1.10;;;1.00;;
7233;SDS011;3658;47.992;10.158;2022-11-20T03:28:56;1.27;;;1.17;;
7233;SDS011;3658;47.992;10.158;2022-11-20T03:31:26;1.20;;;1.10;;
7233;SDS011;3658;47.992;10.158;2022-11-20T03:33:55;1.20;;;1.10;;
7233;SDS011;3658;47.992;10.158;2022-11-20T03:36:23;1.00;;;1.00;;
7233;SDS011;3658;47.992;10.158;2022-11-20T03:38:52;1.30;;;1.20;;
7233;SDS011;3658;47.992;10.158;2022-11-20T03:41:20;1.20;;;1.00;;
7233;SDS011;3658;47.992;10.158;2022-11-20T03:43:48;1.27;;;1.17;;
7233;SDS011;3658;47.992;10.158;2022-11-20T03:46:16;0.90;;;0.90;;
7233;SDS011;3658;47.992;10.158;2022-11-20T03:48:43;1.10;;;1.00;;
7233;SDS011;3658;47.992;10.158;2022-11-20T03:51:13;1.57;;;1.20;;
7233;SDS011;3658;47.992;10.158;2022-11-20T03:53:43;1.40;;;1.17;;
7233;SDS011;3658;47.992;10.158;2022-11-20T03:56:11;1.07;;;1.07;;
7233;SDS011;3658;47.992;10.158;2022-11-20T03:58:40;1.20;;;1.10;;
7233;SDS011;3658;47.992;10.158;2022-11-20T04:01:07;1.30;;;1.20;;
7233;SDS011;3658;47.992;10.158;2022-11-20T04:03:36;1.00;;;1.00;;
7233;SDS011;3658;47.992;10.158;2022-11-20T04:06:04;1.20;;;1.10;;
7233;SDS011;3658;47.992;10.158;2022-11-20T04:08:34;0.93;;;0.93;;
7233;SDS011;3658;47.992;10.158;2022-11-20T04:11:11;0.90;;;0.90;;
7233;SDS011;3658;47.992;10.158;2022-11-20T04:13:39;1.23;;;1.00;;
7233;SDS011;3658;47.992;10.158;2022-11-20T04:16:07;1.30;;;1.20;;
7233;SDS011;3658;47.992;10.158;2022-11-20T04:18:34;1.23;;;1.13;;
7233;SDS011;3658;47.992;10.158;2022-11-20T04:21:02;1.33;;;1.23;;
7233;SDS011;3658;47.992;10.158;2022-11-20T04:23:29;1.20;;;1.10;;
7233;SDS011;3658;47.992;10.158;2022-11-20T04:26:01;1.17;;;1.03;;
7233;SDS011;3658;47.992;10.158;2022-11-20T04:28:29;1.00;;;1.00;;
7233;SDS011;3658;47.992;10.158;2022-11-20T04:31:07;1.20;;;1.10;;
7233;SDS011;3658;47.992;10.158;2022-11-20T04:33:36;1.10;;;1.00;;
7233;SDS011;3658;47.992;10.158;2022-11-20T04:36:04;1.20;;;1.10;;
7233;SDS011;3658;47.992;10.158;2022-11-20T04:38:32;0.90;;;0.90;;
7233;SDS011;3658;47.992;10.158;2022-11-20T04:41:00;0.90;;;0.90;;
7233;SDS011;3658;47.992;10.158;2022-11-20T04:43:29;1.10;;;1.00;;
7233;SDS011;3658;47.992;10.158;2022-11-20T04:45:57;1.07;;;1.07;;
7233;SDS011;3658;47.992;10.158;2022-11-20T04:48:25;0.90;;;0.90;;
7233;SDS011;3658;47.992;10.158;2022-11-20T04:50:53;0.93;;;0.93;;
7233;SDS011;3658;47.992;10.158;2022-11-20T04:53:20;1.00;;;0.90;;
7233;SDS011;3658;47.992;10.158;2022-11-20T04:55:47;1.00;;;1.00;;
7233;SDS011;3658;47.992;10.158;2022-11-20T04:58:16;1.10;;;1.00;;
7233;SDS011;3658;47.992;10.158;2022-11-20T05:00:43;1.00;;;1.00;;
7233;SDS011;3658;47.992;10.158;2022-11-20T05:03:10;1.20;;;1.10;;
7233;SDS011;3658;47.992;10.158;2022-11-20T05:05:37;0.90;;;0.90;;
7233;SDS011;3658;47.992;10.158;2022-11-20T05:08:04;1.00;;;1.00;;
7233;SDS011;3658;47.992;10.158;2022-11-20T05:10:31;1.00;;;1.00;;
7233;SDS011;3658;47.992;10.158;2022-11-20T05:12:57;1.50;;;1.10;;
7233;SDS011;3658;47.992;10.158;2022-11-20T05:15:27;1.10;;;1.00;;
7233;SDS011;3658;47.992;10.158;2022-11-20T05:17:54;1.20;;;1.07;;
7233;SDS011;3658;47.992;10.158;2022-11-20T05:20:21;1.07;;;0.97;;
7233;SDS011;3658;47.992;10.158;2022-11-20T05:22:48;0.93;;;0.93;;
7233;SDS011;3658;47.992;10.158;2022-11-20T05:25:14;0.87;;;0.87;;
7233;SDS011;3658;47.992;10.158;2022-11-20T05:27:41;1.40;;;1.20;;
7233;SDS011;3658;47.992;10.158;2022-11-20T05:30:09;1.20;;;1.10;;
7233;SDS011;3658;47.992;10.158;2022-11-20T05:32:38;1.00;;;1.00;;
7233;SDS011;3658;47.992;10.158;2022-11-20T05:35:05;1.00;;;1.00;;
7233;SDS011;3658;47.992;10.158;2022-11-20T05:37:32;1.10;;;1.00;;
7233;SDS011;3658;47.992;10.158;2022-11-20T05:39:59;1.10;;;1.00;;
7233;SDS011;3658;47.992;10.158;2022-11-20T05:42:29;1.10;;;1.00;;
7233;SDS011;3658;47.992;10.158;2022-11-20T05:44:56;1.13;;;1.03;;
7233;SDS011;3658;47.992;10.158;2022-11-20T05:47:23;1.13;;;1.00;;
7233;SDS011;3658;47.992;10.158;2022-11-20T05:49:52;1.00;;;1.00;;
7233;SDS011;3658;47.992;10.158;2022-11-20T05:52:19;0.90;;;0.90;;
7233;SDS011;3658;47.992;10.158;2022-11-20T05:54:46;0.90;;;0.90;;
7233;SDS011;3658;47.992;10.158;2022-11-20T05:57:13;1.20;;;1.10;;
7233;SDS011;3658;47.992;10.158;2022-11-20T05:59:41;1.23;;;1.13;;
7233;SDS011;3658;47.992;10.158;2022-11-20T06:02:08;1.10;;;1.10;;
7233;SDS011;3658;47.992;10.158;2022-11-20T06:04:35;1.30;;;1.20;;
7233;SDS011;3658;47.992;10.158;2022-11-20T06:07:04;0.97;;;0.93;;
7233;SDS011;3658;47.992;10.158;2022-11-20T06:09:31;0.97;;;0.97;;
7233;SDS011;3658;47.992;10.158;2022-11-20T06:11:58;1.20;;;1.10;;
7233;SDS011;3658;47.992;10.158;2022-11-20T06:14:25;1.20;;;0.90;;
7233;SDS011;3658;47.992;10.158;2022-11-20T06:16:52;0.90;;;0.90;;
7233;SDS011;3658;47.992;10.158;2022-11-20T06:19:19;1.00;;;1.00;;
7233;SDS011;3658;47.992;10.158;2022-11-20T06:21:47;1.20;;;1.10;;
7233;SDS011;3658;47.992;10.158;2022-11-20T06:24:15;0.90;;;0.90;;
7233;SDS011;3658;47.992;10.158;2022-11-20T06:26:42;1.40;;;1.17;;
7233;SDS011;3658;47.992;10.158;2022-11-20T06:29:10;1.20;;;0.90;;
7233;SDS011;3658;47.992;10.158;2022-11-20T06:31:37;1.50;;;1.07;;
7233;SDS011;3658;47.992;10.158;2022-11-20T06:34:04;0.90;;;0.90;;
7233;SDS011;3658;47.992;10.158;2022-11-20T06:36:31;1.53;;;1.30;;
7233;SDS011;3658;47.992;10.158;2022-11-20T06:38:58;1.20;;;1.10;;
7233;SDS011;3658;47.992;10.158;2022-11-20T06:41:27;0.97;;;0.93;;
7233;SDS011;3658;47.992;10.158;2022-11-20T06:43:54;1.10;;;1.00;;
7233;SDS011;3658;47.992;10.158;2022-11-20T06:46:21;1.00;;;1.00;;
7233;SDS011;3658;47.992;10.158;2022-11-20T06:48:48;1.10;;;1.10;;
7233;SDS011;3658;47.992;10.158;2022-11-20T06:51:16;1.20;;;1.10;;
7233;SDS011;3658;47.992;10.158;2022-11-20T06:53:43;5.40;;;1.00;;
7233;SDS011;3658;47.992;10.158;2022-11-20T06:56:10;1.13;;;1.03;;
7233;SDS011;3658;47.992;10.158;2022-11-20T06:58:39;1.10;;;1.00;;
7233;SDS011;3658;47.992;10.158;2022-11-20T07:01:06;1.10;;;1.00;;
7233;SDS011;3658;47.992;10.158;2022-11-20T07:03:35;2.50;;;0.90;;
7233;SDS011;3658;47.992;10.158;2022-11-20T07:06:03;1.93;;;1.10;;
7233;SDS011;3658;47.992;10.158;2022-11-20T07:08:31;1.27;;;1.00;;
7233;SDS011;3658;47.992;10.158;2022-11-20T07:10:59;1.13;;;1.03;;
7233;SDS011;3658;47.992;10.158;2022-11-20T07:13:28;1.57;;;1.00;;
7233;SDS011;3658;47.992;10.158;2022-11-20T07:16:00;1.80;;;1.00;;
7233;SDS011;3658;47.992;10.158;2022-11-20T07:18:28;1.10;;;1.00;;
7233;SDS011;3658;47.992;10.158;2022-11-20T07:20:55;0.90;;;0.90;;
7233;SDS011;3658;47.992;10.158;2022-11-20T07:23:25;0.83;;;0.83;;
7233;SDS011;3658;47.992;10.158;2022-11-20T07:25:52;2.57;;;1.10;;
7233;SDS011;3658;47.992;10.158;2022-11-20T07:28:19;1.03;;;1.00;;
7233;SDS011;3658;47.992;10.158;2022-11-20T07:30:49;1.00;;;1.00;;
7233;SDS011;3658;47.992;10.158;2022-11-20T07:33:18;0.90;;;0.90;;
7233;SDS011;3658;47.992;10.158;2022-11-20T07:35:45;1.03;;;0.90;;
7233;SDS011;3658;47.992;10.158;2022-11-20T07:38:12;1.47;;;0.83;;
7233;SDS011;3658;47.992;10.158;2022-11-20T07:40:39;1.53;;;0.90;;
7233;SDS011;3658;47.992;10.158;2022-11-20T07:43:06;3.37;;;1.00;;
7233;SDS011;3658;47.992;10.158;2022-11-20T07:45:33;1.10;;;1.00;;
7233;SDS011;3658;47.992;10.158;2022-11-20T07:48:00;1.10;;;1.00;;
7233;SDS011;3658;47.992;10.158;2022-11-20T07:50:29;1.07;;;0.90;;
7233;SDS011;3658;47.992;10.158;2022-11-20T07:53:05;1.57;;;1.00;;
7233;SDS011;3658;47.992;10.158;2022-11-20T07:55:32;1.20;;;1.10;;
7233;SDS011;3658;47.992;10.158;2022-11-20T07:57:59;1.43;;;1.07;;
7233;SDS011;3658;47.992;10.158;2022-11-20T08:00:26;1.07;;;0.97;;
7233;SDS011;3658;47.992;10.158;2022-11-20T08:02:53;1.00;;;1.00;;
7233;SDS011;3658;47.992;10.158;2022-11-20T08:05:20;1.00;;;0.93;;
7233;SDS011;3658;47.992;10.158;2022-11-20T08:07:56;1.63;;;1.20;;
7233;SDS011;3658;47.992;10.158;2022-11-20T08:10:24;0.70;;;0.70;;
7233;SDS011;3658;47.992;10.158;2022-11-20T08:12:52;1.03;;;0.87;;
7233;SDS011;3658;47.992;10.158;2022-11-20T08:15:37;1.00;;;0.97;;
7233;SDS011;3658;47.992;10.158;2022-11-20T08:18:06;0.83;;;0.83;;
7233;SDS011;3658;47.992;10.158;2022-11-20T08:20:34;1.20;;;1.10;;
7233;SDS011;3658;47.992;10.158;2022-11-20T08:23:03;1.00;;;1.00;;
7233;SDS011;3658;47.992;10.158;2022-11-20T08:25:32;1.07;;;1.00;;
7233;SDS011;3658;47.992;10.158;2022-11-20T08:28:00;0.80;;;0.80;;
7233;SDS011;3658;47.992;10.158;2022-11-20T08:30:28;1.20;;;1.00;;
7233;SDS011;3658;47.992;10.158;2022-11-20T08:33:00;1.27;;;1.10;;
7233;SDS011;3658;47.992;10.158;2022-11-20T08:35:28;1.60;;;1.10;;
7233;SDS011;3658;47.992;10.158;2022-11-20T08:37:58;2.03;;;1.00;;
7233;SDS011;3658;47.992;10.158;2022-11-20T08:40:27;1.33;;;1.00;;
7233;SDS011;3658;47.992;10.158;2022-11-20T08:42:54;0.87;;;0.83;;
7233;SDS011;3658;47.992;10.158;2022-11-20T08:45:21;1.93;;;1.00;;
7233;SDS011;3658;47.992;10.158;2022-11-20T08:47:48;1.53;;;1.10;;
7233;SDS011;3658;47.992;10.158;2022-11-20T08:50:16;0.83;;;0.83;;
7233;SDS011;3658;47.992;10.158;2022-11-20T08:52:43;1.53;;;1.23;;
7233;SDS011;3658;47.992;10.158;2022-11-20T08:55:10;2.30;;;2.10;;
7233;SDS011;3658;47.992;10.158;2022-11-20T08:57:39;2.67;;;2.40;;
7233;SDS011;3658;47.992;10.158;2022-11-20T09:00:07;1.87;;;1.60;;
7233;SDS011;3658;47.992;10.158;2022-11-20T09:02:34;3.33;;;1.50;;
7233;SDS011;3658;47.992;10.158;2022-11-20T09:05:01;5.63;;;1.70;;
7233;SDS011;3658;47.992;10.158;2022-11-20T09:07:29;3.10;;;1.50;;
7233;SDS011;3658;47.992;10.158;2022-11-20T09:09:56;2.93;;;1.23;;
7233;SDS011;3658;47.992;10.158;2022-11-20T09:12:23;1.80;;;1.20;;
7233;SDS011;3658;47.992;10.158;2022-11-20T09:14:52;2.30;;;1.17;;
7233;SDS011;3658;47.992;10.158;2022-11-20T09:17:19;1.43;;;1.20;;
7233;SDS011;3658;47.992;10.158;2022-11-20T09:19:46;2.37;;;1.07;;
7233;SDS011;3658;47.992;10.158;2022-11-20T09:22:13;2.03;;;1.00;;
7233;SDS011;3658;47.992;10.158;2022-11-20T09:24:40;1.10;;;1.00;;
7233;SDS011;3658;47.992;10.158;2022-11-20T09:27:08;2.23;;;1.10;;
7233;SDS011;3658;47.992;10.158;2022-11-20T09:29:34;1.23;;;1.13;;
7233;SDS011;3658;47.992;10.158;2022-11-20T09:32:03;1.30;;;1.00;;
7233;SDS011;3658;47.992;10.158;2022-11-20T09:34:31;2.10;;;1.20;;
7233;SDS011;3658;47.992;10.158;2022-11-20T09:36:58;1.80;;;1.03;;
7233;SDS011;3658;47.992;10.158;2022-11-20T09:39:25;1.10;;;1.00;;
7233;SDS011;3658;47.992;10.158;2022-11-20T09:41:58;2.57;;;1.00;;
7233;SDS011;3658;47.992;10.158;2022-11-20T09:44:41;1.47;;;0.90;;
7233;SDS011;3658;47.992;10.158;2022-11-20T09:47:26;3.40;;;1.07;;
7233;SDS011;3658;47.992;10.158;2022-11-20T09:50:07;1.43;;;1.00;;
7233;SDS011;3658;47.992;10.158;2022-11-20T09:52:49;1.20;;;1.00;;
7233;SDS011;3658;47.992;10.158;2022-11-20T09:55:27;1.13;;;1.00;;
7233;SDS011;3658;47.992;10.158;2022-11-20T09:57:55;1.77;;;1.10;;
7233;SDS011;3658;47.992;10.158;2022-11-20T10:00:24;0.97;;;0.80;;
7233;SDS011;3658;47.992;10.158;2022-11-20T10:02:55;2.00;;;0.80;;
7233;SDS011;3658;47.992;10.158;2022-11-20T10:05:27;3.47;;;1.03;;
7233;SDS011;3658;47.992;10.158;2022-11-20T10:07:59;3.73;;;1.10;;
7233;SDS011;3658;47.992;10.158;2022-11-20T10:10:40;3.03;;;1.10;;
7233;SDS011;3658;47.992;10.158;2022-11-20T10:13:13;1.20;;;1.00;;
7233;SDS011;3658;47.992;10.158;2022-11-20T10:15:52;3.90;;;1.10;;
7233;SDS011;3658;47.992;10.158;2022-11-20T10:18:29;1.20;;;1.00;;
7233;SDS011;3658;47.992;10.158;2022-11-20T10:21:09;1.20;;;1.10;;
7233;SDS011;3658;47.992;10.158;2022-11-20T10:23:47;0.87;;;0.87;;
7233;SDS011;3658;47.992;10.158;2022-11-20T10:26:25;1.20;;;1.10;;
7233;SDS011;3658;47.992;10.158;2022-11-20T10:29:08;1.00;;;0.90;;
7233;SDS011;3658;47.992;10.158;2022-11-20T10:31:39;1.43;;;1.10;;
7233;SDS011;3658;47.992;10.158;2022-11-20T10:34:14;1.53;;;0.90;;
7233;SDS011;3658;47.992;10.158;2022-11-20T10:36:47;2.77;;;1.03;;
7233;SDS011;3658;47.992;10.158;2022-11-20T10:39:20;3.60;;;1.30;;
7233;SDS011;3658;47.992;10.158;2022-11-20T10:41:53;4.50;;;1.20;;
7233;SDS011;3658;47.992;10.158;2022-11-20T10:44:21;3.03;;;1.13;;
7233;SDS011;3658;47.992;10.158;2022-11-20T10:47:03;5.13;;;1.30;;
7233;SDS011;3658;47.992;10.158;2022-11-20T10:49:32;2.53;;;1.40;;
7233;SDS011;3658;47.992;10.158;2022-11-20T10:52:02;2.53;;;1.43;;
7233;SDS011;3658;47.992;10.158;2022-11-20T10:54:39;5.90;;;1.73;;
7233;SDS011;3658;47.992;10.158;2022-11-20T10:57:17;5.27;;;1.40;;
7233;SDS011;3658;47.992;10.158;2022-11-20T10:59:59;5.40;;;2.07;;
7233;SDS011;3658;47.992;10.158;2022-11-20T11:02:34;2.00;;;1.40;;
7233;SDS011;3658;47.992;10.158;2022-11-20T11:05:12;2.37;;;1.50;;
7233;SDS011;3658;47.992;10.158;2022-11-20T11:07:52;2.50;;;1.50;;
7233;SDS011;3658;47.992;10.158;2022-11-20T11:10:22;1.87;;;1.50;;
7233;SDS011;3658;47.992;10.158;2022-11-20T11:12:54;1.73;;;1.50;;
7233;SDS011;3658;47.992;10.158;2022-11-20T11:15:25;1.83;;;1.50;;
7233;SDS011;3658;47.992;10.158;2022-11-20T11:17:53;1.97;;;1.43;;
7233;SDS011;3658;47.992;10.158;2022-11-20T11:20:22;2.73;;;1.50;;
7233;SDS011;3658;47.992;10.158;2022-11-20T11:22:50;2.40;;;1.40;;
7233;SDS011;3658;47.992;10.158;2022-11-20T11:25:26;2.03;;;1.40;;
7233;SDS011;3658;47.992;10.158;2022-11-20T11:27:56;3.63;;;1.40;;
7233;SDS011;3658;47.992;10.158;2022-11-20T11:30:24;1.57;;;1.47;;
7233;SDS011;3658;47.992;10.158;2022-11-20T11:33:02;2.63;;;1.70;;
7233;SDS011;3658;47.992;10.158;2022-11-20T11:35:33;3.30;;;1.90;;
7233;SDS011;3658;47.992;10.158;2022-11-20T11:38:11;4.17;;;1.63;;
7233;SDS011;3658;47.992;10.158;2022-11-20T11:40:41;2.03;;;1.80;;
7233;SDS011;3658;47.992;10.158;2022-11-20T11:43:16;1.67;;;1.57;;
7233;SDS011;3658;47.992;10.158;2022-11-20T11:45:59;2.27;;;1.97;;
7233;SDS011;3658;47.992;10.158;2022-11-20T11:48:27;8.63;;;2.10;;
7233;SDS011;3658;47.992;10.158;2022-11-20T11:50:55;2.63;;;2.10;;
7233;SDS011;3658;47.992;10.158;2022-11-20T11:53:23;5.50;;;2.30;;
7233;SDS011;3658;47.992;10.158;2022-11-20T11:55:53;9.57;;;2.07;;
7233;SDS011;3658;47.992;10.158;2022-11-20T11:58:37;6.23;;;2.00;;
7233;SDS011;3658;47.992;10.158;2022-11-20T12:01:15;3.63;;;1.90;;
7233;SDS011;3658;47.992;10.158;2022-11-20T12:03:53;5.63;;;2.17;;
7233;SDS011;3658;47.992;10.158;2022-11-20T12:06:28;5.63;;;1.90;;
7233;SDS011;3658;47.992;10.158;2022-11-20T12:08:58;3.10;;;1.70;;
7233;SDS011;3658;47.992;10.158;2022-11-20T12:11:30;2.70;;;1.77;;
7233;SDS011;3658;47.992;10.158;2022-11-20T12:14:02;3.17;;;1.83;;
7233;SDS011;3658;47.992;10.158;2022-11-20T12:16:40;5.00;;;1.53;;
7233;SDS011;3658;47.992;10.158;2022-11-20T12:19:08;2.40;;;1.80;;
7233;SDS011;3658;47.992;10.158;2022-11-20T12:21:40;2.00;;;1.80;;
7233;SDS011;3658;47.992;10.158;2022-11-20T12:24:34;3.50;;;1.80;;
7233;SDS011;3658;47.992;10.158;2022-11-20T12:27:39;2.40;;;1.97;;
7233;SDS011;3658;47.992;10.158;2022-11-20T12:30:17;2.33;;;1.73;;
7233;SDS011;3658;47.992;10.158;2022-11-20T12:35:47;1.67;;;1.57;;
7233;SDS011;3658;47.992;10.158;2022-11-20T12:38:36;2.90;;;2.00;;
7233;SDS011;3658;47.992;10.158;2022-11-20T12:41:25;2.30;;;1.90;;
7233;SDS011;3658;47.992;10.158;2022-11-20T12:44:24;3.03;;;1.90;;
7233;SDS011;3658;47.992;10.158;2022-11-20T12:47:22;2.37;;;1.80;;
7233;SDS011;3658;47.992;10.158;2022-11-20T12:49:56;3.10;;;2.10;;
7233;SDS011;3658;47.992;10.158;2022-11-20T12:52:37;1.87;;;1.60;;
7233;SDS011;3658;47.992;10.158;2022-11-20T12:55:28;2.13;;;1.80;;
7233;SDS011;3658;47.992;10.158;2022-11-20T12:58:04;3.80;;;1.93;;
7233;SDS011;3658;47.992;10.158;2022-11-20T13:00:38;2.70;;;1.90;;
7233;SDS011;3658;47.992;10.158;2022-11-20T13:03:22;2.97;;;1.80;;
7233;SDS011;3658;47.992;10.158;2022-11-20T13:06:00;4.70;;;1.93;;
7233;SDS011;3658;47.992;10.158;2022-11-20T13:08:38;3.47;;;1.70;;
7233;SDS011;3658;47.992;10.158;2022-11-20T13:11:09;3.77;;;1.83;;
7233;SDS011;3658;47.992;10.158;2022-11-20T13:13:59;2.37;;;1.77;;
7233;SDS011;3658;47.992;10.158;2022-11-20T13:16:36;4.23;;;2.23;;
7233;SDS011;3658;47.992;10.158;2022-11-20T13:19:09;3.57;;;1.60;;
7233;SDS011;3658;47.992;10.158;2022-11-20T13:21:39;2.30;;;1.80;;
7233;SDS011;3658;47.992;10.158;2022-11-20T13:24:19;2.77;;;1.70;;
7233;SDS011;3658;47.992;10.158;2022-11-20T13:27:00;2.97;;;1.50;;
7233;SDS011;3658;47.992;10.158;2022-11-20T13:29:28;2.20;;;1.57;;
7233;SDS011;3658;47.992;10.158;2022-11-20T13:32:02;2.77;;;1.77;;
7233;SDS011;3658;47.992;10.158;2022-11-20T13:34:31;3.17;;;1.80;;
7233;SDS011;3658;47.992;10.158;2022-11-20T13:36:59;2.43;;;1.87;;
7233;SDS011;3658;47.992;10.158;2022-11-20T13:39:29;5.03;;;1.70;;
7233;SDS011;3658;47.992;10.158;2022-11-20T13:41:58;2.10;;;1.57;;
7233;SDS011;3658;47.992;10.158;2022-11-20T13:44:29;4.20;;;1.60;;
7233;SDS011;3658;47.992;10.158;2022-11-20T13:47:00;2.33;;;1.70;;
7233;SDS011;3658;47.992;10.158;2022-11-20T13:49:29;5.50;;;1.40;;
7233;SDS011;3658;47.992;10.158;2022-11-20T13:52:01;2.43;;;1.73;;
7233;SDS011;3658;47.992;10.158;2022-11-20T13:54:52;6.73;;;1.63;;
7233;SDS011;3658;47.992;10.158;2022-11-20T13:57:34;2.97;;;1.93;;
7233;SDS011;3658;47.992;10.158;2022-11-20T14:00:21;3.70;;;1.60;;
7233;SDS011;3658;47.992;10.158;2022-11-20T14:02:52;3.00;;;1.70;;
7233;SDS011;3658;47.992;10.158;2022-11-20T14:05:27;1.77;;;1.60;;
7233;SDS011;3658;47.992;10.158;2022-11-20T14:07:57;2.07;;;1.87;;
7233;SDS011;3658;47.992;10.158;2022-11-20T14:10:25;1.80;;;1.50;;
7233;SDS011;3658;47.992;10.158;2022-11-20T14:12:54;2.70;;;1.43;;
7233;SDS011;3658;47.992;10.158;2022-11-20T14:15:25;1.73;;;1.40;;
7233;SDS011;3658;47.992;10.158;2022-11-20T14:17:54;2.27;;;1.73;;
7233;SDS011;3658;47.992;10.158;2022-11-20T14:20:22;3.77;;;1.70;;
7233;SDS011;3658;47.992;10.158;2022-11-20T14:22:52;2.07;;;1.87;;
7233;SDS011;3658;47.992;10.158;2022-11-20T14:25:21;2.37;;;1.63;;
7233;SDS011;3658;47.992;10.158;2022-11-20T14:27:52;2.97;;;1.57;;
7233;SDS011;3658;47.992;10.158;2022-11-20T14:30:23;4.13;;;1.70;;
7233;SDS011;3658;47.992;10.158;2022-11-20T14:32:51;2.00;;;1.60;;
7233;SDS011;3658;47.992;10.158;2022-11-20T14:35:21;4.77;;;1.67;;
7233;SDS011;3658;47.992;10.158;2022-11-20T14:37:51;2.23;;;1.67;;
7233;SDS011;3658;47.992;10.158;2022-11-20T14:40:22;3.53;;;1.60;;
7233;SDS011;3658;47.992;10.158;2022-11-20T14:42:51;1.47;;;1.37;;
7233;SDS011;3658;47.992;10.158;2022-11-20T14:45:20;2.10;;;1.47;;
7233;SDS011;3658;47.992;10.158;2022-11-20T14:47:47;1.60;;;1.50;;
7233;SDS011;3658;47.992;10.158;2022-11-20T14:50:16;2.40;;;2.20;;
7233;SDS011;3658;47.992;10.158;2022-11-20T14:52:52;3.17;;;2.50;;
7233;SDS011;3658;47.992;10.158;2022-11-20T14:55:28;2.77;;;2.30;;
7233;SDS011;3658;47.992;10.158;2022-11-20T14:57:57;2.67;;;2.17;;
7233;SDS011;3658;47.992;10.158;2022-11-20T15:00:27;2.90;;;1.90;;
7233;SDS011;3658;47.992;10.158;2022-11-20T15:02:55;2.90;;;2.03;;
7233;SDS011;3658;47.992;10.158;2022-11-20T15:05:22;3.97;;;3.57;;
7233;SDS011;3658;47.992;10.158;2022-11-20T15:07:51;5.20;;;3.23;;
7233;SDS011;3658;47.992;10.158;2022-11-20T15:10:31;3.60;;;3.00;;
7233;SDS011;3658;47.992;10.158;2022-11-20T15:12:59;4.07;;;3.43;;
7233;SDS011;3658;47.992;10.158;2022-11-20T15:15:30;4.13;;;3.00;;
7233;SDS011;3658;47.992;10.158;2022-11-20T15:18:01;5.33;;;2.90;;
7233;SDS011;3658;47.992;10.158;2022-11-20T15:20:30;3.00;;;2.70;;
7233;SDS011;3658;47.992;10.158;2022-11-20T15:22:58;3.93;;;2.50;;